createdAt,value
2023-03-19T00:00:41.309Z,1.41
2023-03-19T00:01:31.388Z,1.37
2023-03-19T00:02:21.684Z,1.42
2023-03-19T00:03:11.791Z,1.36
2023-03-19T00:04:01.803Z,1.38
2023-03-19T00:04:51.833Z,1.38
2023-03-19T00:05:41.861Z,1.41
2023-03-19T00:06:31.938Z,1.37
2023-03-19T00:07:21.976Z,1.38
2023-03-19T00:08:12.014Z,1.38
2023-03-19T00:09:02.134Z,1.33
2023-03-19T00:09:52.145Z,1.37
2023-03-19T00:10:42.172Z,1.37
2023-03-19T00:11:32.257Z,1.38
2023-03-19T00:12:22.287Z,1.39
2023-03-19T00:13:12.411Z,1.38
2023-03-19T00:14:02.470Z,1.38
2023-03-19T00:14:52.485Z,1.42
2023-03-19T00:15:42.522Z,1.38
2023-03-19T00:16:32.620Z,1.39
2023-03-19T00:17:22.624Z,1.35
2023-03-19T00:18:12.937Z,1.43
2023-03-19T00:19:02.996Z,1.37
2023-03-19T00:19:53.066Z,1.36
2023-03-19T00:20:43.132Z,1.37
2023-03-19T00:21:33.204Z,1.37
2023-03-19T00:22:23.268Z,1.36
2023-03-19T00:23:13.339Z,1.35
2023-03-19T00:24:03.424Z,1.36
2023-03-19T00:24:53.455Z,1.37
2023-03-19T00:25:43.611Z,1.39
2023-03-19T00:26:33.696Z,1.37
2023-03-19T00:27:23.721Z,1.32
2023-03-19T00:28:14.057Z,1.37
2023-03-19T00:29:04.141Z,1.37
2023-03-19T00:29:54.209Z,1.35
2023-03-19T00:30:44.358Z,1.42
2023-03-19T00:31:34.281Z,1.37
2023-03-19T00:32:24.309Z,1.39
2023-03-19T00:33:14.397Z,1.40
2023-03-19T00:34:04.411Z,1.40
2023-03-19T00:34:54.575Z,1.36
2023-03-19T00:35:44.678Z,1.39
2023-03-19T00:36:34.715Z,1.38
2023-03-19T00:37:25.014Z,1.35
2023-03-19T00:38:15.046Z,1.32
2023-03-19T00:39:05.115Z,1.36
2023-03-19T00:39:55.126Z,1.33
2023-03-19T00:40:45.151Z,1.36
2023-03-19T00:41:35.240Z,1.34
2023-03-19T00:42:25.266Z,1.36
2023-03-19T00:43:15.343Z,1.33
2023-03-19T00:44:05.392Z,1.38
2023-03-19T00:44:55.446Z,1.37
2023-03-19T00:45:45.525Z,1.38
2023-03-19T00:46:35.545Z,1.38
2023-03-19T00:47:25.582Z,1.34
2023-03-19T00:48:15.659Z,1.34
2023-03-19T00:49:05.705Z,1.37
2023-03-19T00:49:55.816Z,1.34
2023-03-19T00:50:45.800Z,1.40
2023-03-19T00:51:35.872Z,1.35
2023-03-19T00:52:25.942Z,1.33
2023-03-19T00:53:16.229Z,1.36
2023-03-19T00:54:06.290Z,1.38
2023-03-19T00:54:56.343Z,1.32
2023-03-19T00:55:46.398Z,1.36
2023-03-19T00:56:36.412Z,1.36
2023-03-19T00:57:26.479Z,1.36
2023-03-19T00:58:16.522Z,1.37
2023-03-19T00:59:06.580Z,1.32
2023-03-19T00:59:56.657Z,1.33
2023-03-19T01:00:46.704Z,1.31
2023-03-19T01:01:36.897Z,1.33
2023-03-19T01:02:27.070Z,1.33
2023-03-19T01:03:17.099Z,1.31
2023-03-19T01:04:07.214Z,1.34
2023-03-19T01:04:57.459Z,1.33
2023-03-19T01:05:47.541Z,1.33
2023-03-19T01:06:37.582Z,1.28
2023-03-19T01:07:27.608Z,1.32
2023-03-19T01:08:17.675Z,1.27
2023-03-19T01:09:07.704Z,1.31
2023-03-19T01:09:57.757Z,1.33
2023-03-19T01:10:47.809Z,1.34
2023-03-19T01:11:37.840Z,1.32
2023-03-19T01:12:27.900Z,1.32
2023-03-19T01:13:17.977Z,1.30
2023-03-19T01:14:08.262Z,1.29
2023-03-19T01:14:58.346Z,1.29
2023-03-19T01:15:48.388Z,1.26
2023-03-19T01:16:38.431Z,1.27
2023-03-19T01:17:28.513Z,1.29
2023-03-19T01:18:18.557Z,1.29
2023-03-19T01:19:08.625Z,1.29
2023-03-19T01:19:58.698Z,1.27
2023-03-19T01:20:48.760Z,1.29
2023-03-19T01:21:38.787Z,1.31
2023-03-19T01:22:28.852Z,1.28
2023-03-19T01:23:19.106Z,1.29
2023-03-19T01:24:09.129Z,1.26
2023-03-19T01:24:59.201Z,1.21
2023-03-19T01:25:49.564Z,1.30
2023-03-19T01:26:39.584Z,1.30
2023-03-19T01:27:29.606Z,1.33
2023-03-19T01:28:19.688Z,1.35
2023-03-19T01:29:09.712Z,1.30
2023-03-19T01:29:59.758Z,1.27
2023-03-19T01:30:49.885Z,1.28
2023-03-19T01:31:39.858Z,1.26
2023-03-19T01:32:30.017Z,1.26
2023-03-19T01:33:20.006Z,1.21
2023-03-19T01:34:10.001Z,1.23
2023-03-19T01:35:00.112Z,1.27
2023-03-19T01:35:50.186Z,1.25
2023-03-19T01:36:40.220Z,1.24
2023-03-19T01:37:30.250Z,1.24
2023-03-19T01:38:20.311Z,1.25
2023-03-19T01:39:10.370Z,1.23
2023-03-19T01:40:00.441Z,1.26
2023-03-19T01:40:50.533Z,1.26
2023-03-19T01:41:40.565Z,1.28
2023-03-19T01:42:30.596Z,1.25
2023-03-19T01:43:21.407Z,1.27
2023-03-19T01:44:10.914Z,1.23
2023-03-19T01:45:00.993Z,1.24
2023-03-19T01:45:51.574Z,1.25
2023-03-19T01:46:41.453Z,1.26
2023-03-19T01:47:31.447Z,1.27
2023-03-19T01:48:21.516Z,1.25
2023-03-19T01:49:11.558Z,1.27
2023-03-19T01:50:01.627Z,1.21
2023-03-19T01:50:51.678Z,1.24
2023-03-19T01:51:41.781Z,1.21
2023-03-19T01:52:31.789Z,1.19
2023-03-19T01:53:21.841Z,1.21
2023-03-19T01:54:11.884Z,1.20
2023-03-19T01:55:02.149Z,1.22
2023-03-19T01:55:52.193Z,1.22
2023-03-19T01:56:42.225Z,1.24
2023-03-19T01:57:32.303Z,1.23
2023-03-19T01:58:24.923Z,1.28
2023-03-19T01:59:12.426Z,1.24
2023-03-19T02:00:02.497Z,1.23
2023-03-19T02:00:52.549Z,1.24
2023-03-19T02:01:42.727Z,1.26
2023-03-19T02:02:32.880Z,1.20
2023-03-19T02:03:22.945Z,1.21
2023-03-19T02:04:13.573Z,1.22
2023-03-19T02:05:03.328Z,1.20
2023-03-19T02:05:53.383Z,1.18
2023-03-19T02:06:43.411Z,1.18
2023-03-19T02:07:33.734Z,1.18
2023-03-19T02:08:23.822Z,1.18
2023-03-19T02:09:13.849Z,1.19
2023-03-19T02:10:04.189Z,1.21
2023-03-19T02:10:54.227Z,1.19
2023-03-19T02:11:44.262Z,1.18
2023-03-19T02:12:34.334Z,1.17
2023-03-19T02:13:25.070Z,1.18
2023-03-19T02:14:14.492Z,1.20
2023-03-19T02:15:04.541Z,1.19
2023-03-19T02:15:54.654Z,1.19
2023-03-19T02:16:44.647Z,1.19
2023-03-19T02:17:34.709Z,1.19
2023-03-19T02:18:24.787Z,1.23
2023-03-19T02:19:15.024Z,1.20
2023-03-19T02:20:05.121Z,1.16
2023-03-19T02:20:55.140Z,1.20
2023-03-19T02:21:45.171Z,1.19
2023-03-19T02:22:35.190Z,1.17
2023-03-19T02:23:25.268Z,1.18
2023-03-19T02:24:15.328Z,1.15
2023-03-19T02:25:05.407Z,1.16
2023-03-19T02:25:55.493Z,1.15
2023-03-19T02:26:45.515Z,1.14
2023-03-19T02:27:35.581Z,1.17
2023-03-19T02:28:25.868Z,1.15
2023-03-19T02:29:15.935Z,1.15
2023-03-19T02:30:05.981Z,1.15
2023-03-19T02:30:56.200Z,1.13
2023-03-19T02:31:46.227Z,1.14
2023-03-19T02:32:36.170Z,1.14
2023-03-19T02:33:26.210Z,1.16
2023-03-19T02:34:16.293Z,1.17
2023-03-19T02:35:06.473Z,1.15
2023-03-19T02:35:56.706Z,1.15
2023-03-19T02:36:46.543Z,1.17
2023-03-19T02:37:36.604Z,1.19
2023-03-19T02:38:26.677Z,1.20
2023-03-19T02:39:16.744Z,1.24
2023-03-19T02:40:06.821Z,1.20
2023-03-19T02:40:56.937Z,1.20
2023-03-19T02:41:46.985Z,1.19
2023-03-19T02:42:37.039Z,1.19
2023-03-19T02:43:27.101Z,1.19
2023-03-19T02:44:17.256Z,1.23
2023-03-19T02:45:07.360Z,1.21
2023-03-19T02:45:57.415Z,1.18
2023-03-19T02:46:47.824Z,1.18
2023-03-19T02:47:37.768Z,1.17
2023-03-19T02:48:27.848Z,1.17
2023-03-19T02:49:18.130Z,1.18
2023-03-19T02:50:08.205Z,1.21
2023-03-19T02:50:58.296Z,1.22
2023-03-19T02:51:48.342Z,1.24
2023-03-19T02:52:38.388Z,1.23
2023-03-19T02:53:28.474Z,1.21
2023-03-19T02:54:18.504Z,1.23
2023-03-19T02:55:08.569Z,1.19
2023-03-19T02:55:58.616Z,1.21
2023-03-19T02:56:48.668Z,1.23
2023-03-19T02:57:38.680Z,1.22
2023-03-19T02:58:28.970Z,1.22
2023-03-19T02:59:19.040Z,1.20
2023-03-19T03:00:09.128Z,1.23
2023-03-19T03:00:59.457Z,1.23
2023-03-19T03:01:49.464Z,1.19
2023-03-19T03:02:39.488Z,1.20
2023-03-19T03:03:29.520Z,1.21
2023-03-19T03:04:19.606Z,1.20
2023-03-19T03:05:09.663Z,1.20
2023-03-19T03:05:59.746Z,1.17
2023-03-19T03:06:49.797Z,1.19
2023-03-19T03:07:39.861Z,1.19
2023-03-19T03:08:29.870Z,1.17
2023-03-19T03:09:19.935Z,1.13
2023-03-19T03:10:10.241Z,1.18
2023-03-19T03:11:00.265Z,1.15
2023-03-19T03:11:50.302Z,1.16
2023-03-19T03:12:40.383Z,1.19
2023-03-19T03:13:30.413Z,1.18
2023-03-19T03:14:20.472Z,1.18
2023-03-19T03:15:10.550Z,1.16
2023-03-19T03:16:00.703Z,1.16
2023-03-19T03:16:50.664Z,1.16
2023-03-19T03:17:40.742Z,1.17
2023-03-19T03:18:30.809Z,1.14
2023-03-19T03:19:21.107Z,1.13
2023-03-19T03:20:11.166Z,1.13
2023-03-19T03:21:01.264Z,1.12
2023-03-19T03:21:51.553Z,1.11
2023-03-19T03:22:41.618Z,1.11
2023-03-19T03:23:31.716Z,1.15
2023-03-19T03:24:21.997Z,1.16
2023-03-19T03:25:12.059Z,1.15
2023-03-19T03:26:02.148Z,1.14
2023-03-19T03:26:52.428Z,1.12
2023-03-19T03:27:42.504Z,1.13
2023-03-19T03:28:32.568Z,1.14
2023-03-19T03:29:22.850Z,1.11
2023-03-19T03:30:12.914Z,1.11
2023-03-19T03:31:03.009Z,1.13
2023-03-19T03:31:53.043Z,1.13
2023-03-19T03:32:43.168Z,1.12
2023-03-19T03:33:33.137Z,1.10
2023-03-19T03:34:23.166Z,1.09
2023-03-19T03:35:13.245Z,1.09
2023-03-19T03:36:03.336Z,1.11
2023-03-19T03:36:53.369Z,1.09
2023-03-19T03:37:43.435Z,1.08
2023-03-19T03:38:33.702Z,1.10
2023-03-19T03:39:23.737Z,1.10
2023-03-19T03:40:13.812Z,1.08
2023-03-19T03:41:04.117Z,1.09
2023-03-19T03:41:54.152Z,1.06
2023-03-19T03:42:44.191Z,1.09
2023-03-19T03:43:34.213Z,1.10
2023-03-19T03:44:24.285Z,1.06
2023-03-19T03:45:14.373Z,1.07
2023-03-19T03:46:04.497Z,1.08
2023-03-19T03:46:54.504Z,1.09
2023-03-19T03:47:44.577Z,1.06
2023-03-19T03:48:34.644Z,1.06
2023-03-19T03:49:24.675Z,1.08
2023-03-19T03:50:14.862Z,1.07
2023-03-19T03:51:04.889Z,1.07
2023-03-19T03:51:54.920Z,1.06
2023-03-19T03:52:44.998Z,1.07
2023-03-19T03:53:35.025Z,1.09
2023-03-19T03:54:25.112Z,1.05
2023-03-19T03:55:15.162Z,1.06
2023-03-19T03:56:05.230Z,1.07
2023-03-19T03:56:55.271Z,1.01
2023-03-19T03:57:45.311Z,1.08
2023-03-19T03:58:35.346Z,1.06
2023-03-19T03:59:25.638Z,1.04
2023-03-19T04:00:15.729Z,1.06
2023-03-19T04:01:05.782Z,1.05
2023-03-19T04:01:56.179Z,1.06
2023-03-19T04:02:46.175Z,1.05
2023-03-19T04:03:36.220Z,1.04
2023-03-19T04:04:26.273Z,1.04
2023-03-19T04:05:16.358Z,1.06
2023-03-19T04:06:06.368Z,1.07
2023-03-19T04:06:56.445Z,1.06
2023-03-19T04:07:46.489Z,1.04
2023-03-19T04:08:36.518Z,1.07
2023-03-19T04:09:26.571Z,1.05
2023-03-19T04:10:16.633Z,1.05
2023-03-19T04:11:06.668Z,1.05
2023-03-19T04:11:56.708Z,1.04
2023-03-19T04:12:46.803Z,1.06
2023-03-19T04:13:36.850Z,1.06
2023-03-19T04:14:26.894Z,1.07
2023-03-19T04:15:16.972Z,1.07
2023-03-19T04:16:06.994Z,1.04
2023-03-19T04:16:57.148Z,1.00
2023-03-19T04:17:47.413Z,1.05
2023-03-19T04:18:37.429Z,1.03
2023-03-19T04:19:27.455Z,1.04
2023-03-19T04:20:17.550Z,1.02
2023-03-19T04:21:07.583Z,1.04
2023-03-19T04:21:57.641Z,1.04
2023-03-19T04:22:47.732Z,1.02
2023-03-19T04:23:37.754Z,1.02
2023-03-19T04:24:27.787Z,1.02
2023-03-19T04:25:17.875Z,1.01
2023-03-19T04:26:08.018Z,1.00
2023-03-19T04:26:58.171Z,1.02
2023-03-19T04:27:48.254Z,1.01
2023-03-19T04:28:38.299Z,1.01
2023-03-19T04:29:28.327Z,1.01
2023-03-19T04:30:18.410Z,1.02
2023-03-19T04:31:08.462Z,1.00
2023-03-19T04:31:58.465Z,1.02
2023-03-19T04:32:48.573Z,1.03
2023-03-19T04:33:38.562Z,1.00
2023-03-19T04:34:28.595Z,1.01
2023-03-19T04:35:18.666Z,1.04
2023-03-19T04:36:08.964Z,1.02
2023-03-19T04:36:59.034Z,1.00
2023-03-19T04:37:49.103Z,1.00
2023-03-19T04:38:39.128Z,0.98
2023-03-19T04:39:29.197Z,1.01
2023-03-19T04:40:19.264Z,1.01
2023-03-19T04:41:09.355Z,1.02
2023-03-19T04:41:59.376Z,0.99
2023-03-19T04:42:49.461Z,1.00
2023-03-19T04:43:39.488Z,0.99
2023-03-19T04:44:29.546Z,1.01
2023-03-19T04:45:19.786Z,1.04
2023-03-19T04:46:09.920Z,1.01
2023-03-19T04:46:59.932Z,0.98
2023-03-19T04:47:50.236Z,0.99
2023-03-19T04:48:40.274Z,1.01
2023-03-19T04:49:30.323Z,0.97
2023-03-19T04:50:20.394Z,1.00
2023-03-19T04:51:10.448Z,1.00
2023-03-19T04:52:00.529Z,0.97
2023-03-19T04:52:50.586Z,0.99
2023-03-19T04:53:40.608Z,1.00
2023-03-19T04:54:30.668Z,0.96
2023-03-19T04:55:20.741Z,0.99
2023-03-19T04:56:10.768Z,0.97
2023-03-19T04:57:01.087Z,0.98
2023-03-19T04:57:51.100Z,0.99
2023-03-19T04:58:41.144Z,0.99
2023-03-19T04:59:31.172Z,1.00
2023-03-19T05:00:21.214Z,0.98
2023-03-19T05:01:11.255Z,1.00
2023-03-19T05:02:01.308Z,0.99
2023-03-19T05:02:51.410Z,1.01
2023-03-19T05:03:41.493Z,0.99
2023-03-19T05:04:31.491Z,0.99
2023-03-19T05:05:21.544Z,0.99
2023-03-19T05:06:11.868Z,0.97
2023-03-19T05:07:01.940Z,0.95
2023-03-19T05:07:52.032Z,0.97
2023-03-19T05:08:42.071Z,0.97
2023-03-19T05:09:32.098Z,0.98
2023-03-19T05:10:22.186Z,0.98
2023-03-19T05:11:12.214Z,0.98
2023-03-19T05:12:02.304Z,0.97
2023-03-19T05:12:52.354Z,0.97
2023-03-19T05:13:42.371Z,0.94
2023-03-19T05:14:32.387Z,0.96
2023-03-19T05:15:22.465Z,0.98
2023-03-19T05:16:12.523Z,0.98
2023-03-19T05:17:02.573Z,0.97
2023-03-19T05:17:52.660Z,0.96
2023-03-19T05:18:42.703Z,0.96
2023-03-19T05:19:32.724Z,0.97
2023-03-19T05:20:22.793Z,0.95
2023-03-19T05:21:12.893Z,0.97
2023-03-19T05:22:03.149Z,0.96
2023-03-19T05:22:53.243Z,0.96
2023-03-19T05:23:43.263Z,0.95
2023-03-19T05:24:33.302Z,0.93
2023-03-19T05:25:23.365Z,0.95
2023-03-19T05:26:13.403Z,0.95
2023-03-19T05:27:03.481Z,0.93
2023-03-19T05:27:53.553Z,0.98
2023-03-19T05:28:43.610Z,0.92
2023-03-19T05:29:33.651Z,0.93
2023-03-19T05:30:23.761Z,0.93
2023-03-19T05:31:14.056Z,0.94
2023-03-19T05:32:04.008Z,0.94
2023-03-19T05:32:54.143Z,0.94
2023-03-19T05:33:44.089Z,0.92
2023-03-19T05:34:34.158Z,0.94
2023-03-19T05:35:24.247Z,0.92
2023-03-19T05:36:14.293Z,0.92
2023-03-19T05:37:04.370Z,0.91
2023-03-19T05:37:54.456Z,0.93
2023-03-19T05:38:44.487Z,0.97
2023-03-19T05:39:34.522Z,0.92
2023-03-19T05:40:24.721Z,0.92
2023-03-19T05:41:14.777Z,0.92
2023-03-19T05:42:04.867Z,0.93
2023-03-19T05:42:55.168Z,0.93
2023-03-19T05:43:45.200Z,0.91
2023-03-19T05:44:35.297Z,0.91
2023-03-19T05:45:25.609Z,0.92
2023-03-19T05:46:15.706Z,0.91
2023-03-19T05:47:05.747Z,0.90
2023-03-19T05:47:56.054Z,0.89
2023-03-19T05:48:46.097Z,0.91
2023-03-19T05:49:36.119Z,0.91
2023-03-19T05:50:26.191Z,0.91
2023-03-19T05:51:16.220Z,0.90
2023-03-19T05:52:06.300Z,0.94
2023-03-19T05:52:56.357Z,0.96
2023-03-19T05:53:46.377Z,0.92
2023-03-19T05:54:36.445Z,0.92
2023-03-19T05:55:26.518Z,0.92
2023-03-19T05:56:16.586Z,0.94
2023-03-19T05:57:06.878Z,0.91
2023-03-19T05:57:56.945Z,0.91
2023-03-19T05:58:47.028Z,0.89
2023-03-19T05:59:37.296Z,0.92
2023-03-19T06:00:28.615Z,0.95
2023-03-19T06:01:17.469Z,0.95
2023-03-19T06:02:07.515Z,0.94
2023-03-19T06:02:57.664Z,0.95
2023-03-19T06:03:47.690Z,0.94
2023-03-19T06:04:37.684Z,0.93
2023-03-19T06:05:27.797Z,0.87
2023-03-19T06:06:18.041Z,0.92
2023-03-19T06:07:08.107Z,0.90
2023-03-19T06:07:58.191Z,0.94
2023-03-19T06:08:48.495Z,0.92
2023-03-19T06:09:38.533Z,0.93
2023-03-19T06:10:28.607Z,0.94
2023-03-19T06:11:18.953Z,0.93
2023-03-19T06:12:09.024Z,0.94
2023-03-19T06:12:59.060Z,0.93
2023-03-19T06:13:49.090Z,0.91
2023-03-19T06:14:39.157Z,0.95
2023-03-19T06:15:29.227Z,0.92
2023-03-19T06:16:19.345Z,0.91
2023-03-19T06:17:09.342Z,0.89
2023-03-19T06:17:59.418Z,0.88
2023-03-19T06:18:49.443Z,0.87
2023-03-19T06:19:39.515Z,0.88
2023-03-19T06:20:29.756Z,0.85
2023-03-19T06:21:19.799Z,0.89
2023-03-19T06:22:09.865Z,0.88
2023-03-19T06:22:59.903Z,0.91
2023-03-19T06:23:49.934Z,0.92
2023-03-19T06:24:39.966Z,0.89
2023-03-19T06:25:30.052Z,0.89
2023-03-19T06:26:20.074Z,0.87
2023-03-19T06:27:10.147Z,0.88
2023-03-19T06:28:00.204Z,0.87
2023-03-19T06:28:50.229Z,0.86
2023-03-19T06:29:40.260Z,0.84
2023-03-19T06:30:30.344Z,0.89
2023-03-19T06:31:20.408Z,0.85
2023-03-19T06:32:10.643Z,0.86
2023-03-19T06:33:00.526Z,0.84
2023-03-19T06:33:50.543Z,0.86
2023-03-19T06:34:40.582Z,0.85
2023-03-19T06:35:30.640Z,0.85
2023-03-19T06:36:20.938Z,0.85
2023-03-19T06:37:11.017Z,0.86
2023-03-19T06:38:01.048Z,0.85
2023-03-19T06:38:51.099Z,0.83
2023-03-19T06:39:41.132Z,0.85
2023-03-19T06:40:31.236Z,0.84
2023-03-19T06:41:21.260Z,0.85
2023-03-19T06:42:11.368Z,0.83
2023-03-19T06:43:01.428Z,0.80
2023-03-19T06:43:51.476Z,0.79
2023-03-19T06:44:41.506Z,0.75
2023-03-19T06:45:31.835Z,0.74
2023-03-19T06:46:21.892Z,0.73
2023-03-19T06:47:11.934Z,0.73
2023-03-19T06:48:02.275Z,0.76
2023-03-19T06:48:52.266Z,0.72
2023-03-19T06:49:42.334Z,0.74
2023-03-19T06:50:32.986Z,0.75
2023-03-19T06:51:22.712Z,0.75
2023-03-19T06:52:12.793Z,0.78
2023-03-19T06:53:02.848Z,0.77
2023-03-19T06:53:52.870Z,0.76
2023-03-19T06:54:42.906Z,0.78
2023-03-19T06:55:32.988Z,0.77
2023-03-19T06:56:23.021Z,0.79
2023-03-19T06:57:13.101Z,0.81
2023-03-19T06:58:03.188Z,0.81
2023-03-19T06:58:53.206Z,0.86
2023-03-19T06:59:43.486Z,0.84
2023-03-19T07:00:33.908Z,0.83
2023-03-19T07:01:23.664Z,0.85
2023-03-19T07:02:13.619Z,0.83
2023-03-19T07:03:03.876Z,0.83
2023-03-19T07:03:53.816Z,0.85
2023-03-19T07:04:43.804Z,0.85
2023-03-19T07:05:33.882Z,0.84
2023-03-19T07:06:23.948Z,0.82
2023-03-19T07:07:14.022Z,0.83
2023-03-19T07:08:04.112Z,0.83
2023-03-19T07:08:54.330Z,0.83
2023-03-19T07:09:44.346Z,0.84
2023-03-19T07:10:34.636Z,0.84
2023-03-19T07:11:24.490Z,0.84
2023-03-19T07:12:14.555Z,0.83
2023-03-19T07:13:04.635Z,0.84
2023-03-19T07:13:54.660Z,0.84
2023-03-19T07:14:44.722Z,0.86
2023-03-19T07:15:34.779Z,0.88
2023-03-19T07:16:24.895Z,0.86
2023-03-19T07:17:14.874Z,0.86
2023-03-19T07:18:05.134Z,0.87
2023-03-19T07:18:55.194Z,0.85
2023-03-19T07:19:45.234Z,0.83
2023-03-19T07:20:36.032Z,0.78
2023-03-19T07:21:25.613Z,0.76
2023-03-19T07:22:15.678Z,0.75
2023-03-19T07:23:05.738Z,0.72
2023-03-19T07:23:55.772Z,0.72
2023-03-19T07:24:45.839Z,0.74
2023-03-19T07:25:35.904Z,0.76
2023-03-19T07:26:25.971Z,0.81
2023-03-19T07:27:16.037Z,0.78
2023-03-19T07:28:06.125Z,0.80
2023-03-19T07:28:56.151Z,0.79
2023-03-19T07:29:46.217Z,0.82
2023-03-19T07:30:36.452Z,0.84
2023-03-19T07:31:26.403Z,0.84
2023-03-19T07:32:16.385Z,0.83
2023-03-19T07:33:06.483Z,0.82
2023-03-19T07:33:56.701Z,0.82
2023-03-19T07:34:46.755Z,0.83
2023-03-19T07:35:36.833Z,0.87
2023-03-19T07:36:26.847Z,0.83
2023-03-19T07:37:16.919Z,0.80
2023-03-19T07:38:06.991Z,0.83
2023-03-19T07:38:57.026Z,0.82
2023-03-19T07:39:47.054Z,0.81
2023-03-19T07:40:38.811Z,0.80
2023-03-19T07:41:27.160Z,0.81
2023-03-19T07:42:17.240Z,0.80
2023-03-19T07:43:07.537Z,0.84
2023-03-19T07:43:57.565Z,0.78
2023-03-19T07:44:47.604Z,0.79
2023-03-19T07:45:37.780Z,0.83
2023-03-19T07:46:27.725Z,0.82
2023-03-19T07:47:28.481Z,0.85
2023-03-19T07:48:08.880Z,0.84
2023-03-19T07:48:58.025Z,0.82
2023-03-19T07:49:47.972Z,0.82
2023-03-19T07:50:38.036Z,0.77
2023-03-19T07:51:28.042Z,0.75
2023-03-19T07:52:19.183Z,0.75
2023-03-19T07:53:08.178Z,0.77
2023-03-19T07:53:58.253Z,0.74
2023-03-19T07:54:48.280Z,0.73
2023-03-19T07:55:38.521Z,0.75
2023-03-19T07:56:28.387Z,0.78
2023-03-19T07:57:18.470Z,0.77
2023-03-19T07:58:08.671Z,0.74
2023-03-19T07:58:58.716Z,0.72
2023-03-19T07:59:48.746Z,0.68
2023-03-19T08:00:38.802Z,0.67
2023-03-19T08:01:28.832Z,0.63
2023-03-19T08:02:21.571Z,0.62
2023-03-19T08:03:08.976Z,0.63
2023-03-19T08:03:59.037Z,0.63
2023-03-19T08:04:49.160Z,0.63
2023-03-19T08:05:39.204Z,0.65
2023-03-19T08:06:29.244Z,0.65
2023-03-19T08:07:19.290Z,0.64
2023-03-19T08:08:09.327Z,0.64
2023-03-19T08:08:59.403Z,0.61
2023-03-19T08:09:49.447Z,0.64
2023-03-19T08:10:39.867Z,0.62
2023-03-19T08:11:29.694Z,0.61
2023-03-19T08:12:19.749Z,0.59
2023-03-19T08:13:09.769Z,0.59
2023-03-19T08:13:59.850Z,0.68
2023-03-19T08:14:49.887Z,0.66
2023-03-19T08:15:39.970Z,0.66
2023-03-19T08:16:30.027Z,0.67
2023-03-19T08:17:20.041Z,0.64
2023-03-19T08:18:10.103Z,0.62
2023-03-19T08:19:00.187Z,0.66
2023-03-19T08:19:50.480Z,0.67
2023-03-19T08:20:40.507Z,0.68
2023-03-19T08:21:30.534Z,0.71
2023-03-19T08:22:20.634Z,0.71
2023-03-19T08:23:10.641Z,0.73
2023-03-19T08:24:02.504Z,0.77
2023-03-19T08:24:50.787Z,0.77
2023-03-19T08:25:40.826Z,0.75
2023-03-19T08:26:30.856Z,0.78
2023-03-19T08:27:20.927Z,0.81
2023-03-19T08:28:11.015Z,0.75
2023-03-19T08:29:01.083Z,0.70
2023-03-19T08:29:51.122Z,0.66
2023-03-19T08:30:41.415Z,0.71
2023-03-19T08:31:31.415Z,0.70
2023-03-19T08:32:21.464Z,0.78
2023-03-19T08:33:11.610Z,0.80
2023-03-19T08:34:01.543Z,0.80
2023-03-19T08:34:51.606Z,0.80
2023-03-19T08:35:41.672Z,0.81
2023-03-19T08:36:31.662Z,0.78
2023-03-19T08:37:21.863Z,0.76
2023-03-19T08:38:11.951Z,0.74
2023-03-19T08:39:02.003Z,0.73
2023-03-19T08:39:52.338Z,0.72
2023-03-19T08:40:42.369Z,0.77
2023-03-19T08:41:32.434Z,0.79
2023-03-19T08:42:22.722Z,0.82
2023-03-19T08:43:12.752Z,0.80
2023-03-19T08:44:02.829Z,0.86
2023-03-19T08:44:52.874Z,0.87
2023-03-19T08:45:42.924Z,0.94
2023-03-19T08:46:33.010Z,0.95
2023-03-19T08:47:22.998Z,0.90
2023-03-19T08:48:13.029Z,0.91
2023-03-19T08:49:03.113Z,0.92
2023-03-19T08:49:53.146Z,0.94
2023-03-19T08:50:43.180Z,0.91
2023-03-19T08:51:33.223Z,0.86
2023-03-19T08:52:23.264Z,0.88
2023-03-19T08:53:13.294Z,0.91
2023-03-19T08:54:03.367Z,0.91
2023-03-19T08:54:53.425Z,0.89
2023-03-19T08:55:43.501Z,0.84
2023-03-19T08:56:33.568Z,0.84
2023-03-19T08:57:23.628Z,0.84
2023-03-19T08:58:13.680Z,0.80
2023-03-19T08:59:03.754Z,0.80
2023-03-19T08:59:53.805Z,0.86
2023-03-19T09:00:44.048Z,0.89
2023-03-19T09:01:34.106Z,0.95
2023-03-19T09:02:24.120Z,0.92
2023-03-19T09:03:14.149Z,0.90
2023-03-19T09:04:04.234Z,0.91
2023-03-19T09:04:54.358Z,0.98
2023-03-19T09:05:44.317Z,0.94
2023-03-19T09:06:34.345Z,0.87
2023-03-19T09:07:24.424Z,0.83
2023-03-19T09:08:14.493Z,0.83
2023-03-19T09:09:04.578Z,0.82
2023-03-19T09:09:54.862Z,0.87
2023-03-19T09:10:44.869Z,0.85
2023-03-19T09:11:35.109Z,0.86
2023-03-19T09:12:24.999Z,0.88
2023-03-19T09:13:15.074Z,0.92
2023-03-19T09:14:05.146Z,0.93
2023-03-19T09:14:55.189Z,0.97
2023-03-19T09:15:45.289Z,1.01
2023-03-19T09:16:35.276Z,1.01
2023-03-19T09:17:25.381Z,0.99
2023-03-19T09:18:15.387Z,1.00
2023-03-19T09:19:05.694Z,1.00
2023-03-19T09:19:55.725Z,0.99
2023-03-19T09:20:45.768Z,0.98
2023-03-19T09:21:35.793Z,0.96
2023-03-19T09:22:25.883Z,0.93
2023-03-19T09:23:15.902Z,0.93
2023-03-19T09:24:05.976Z,0.91
2023-03-19T09:24:56.061Z,0.84
2023-03-19T09:25:46.127Z,0.80
2023-03-19T09:26:36.138Z,0.81
2023-03-19T09:27:26.205Z,0.85
2023-03-19T09:28:16.463Z,0.84
2023-03-19T09:29:06.520Z,0.89
2023-03-19T09:29:56.573Z,0.93
2023-03-19T09:30:46.605Z,0.94
2023-03-19T09:31:36.727Z,0.91
2023-03-19T09:32:26.689Z,0.92
2023-03-19T09:33:16.832Z,0.93
2023-03-19T09:34:06.802Z,0.88
2023-03-19T09:34:56.876Z,0.84
2023-03-19T09:35:46.943Z,0.87
2023-03-19T09:36:36.945Z,0.90
2023-03-19T09:37:27.034Z,0.85
2023-03-19T09:38:17.063Z,0.88
2023-03-19T09:39:07.105Z,0.91
2023-03-19T09:39:57.149Z,0.94
2023-03-19T09:40:47.182Z,0.90
2023-03-19T09:41:37.341Z,0.89
2023-03-19T09:42:27.322Z,0.89
2023-03-19T09:43:17.352Z,0.88
2023-03-19T09:44:07.434Z,0.90
2023-03-19T09:44:57.497Z,0.87
2023-03-19T09:45:47.543Z,0.88
2023-03-19T09:46:37.629Z,0.93
2023-03-19T09:47:27.655Z,0.91
2023-03-19T09:48:17.712Z,0.86
2023-03-19T09:49:07.795Z,0.86
2023-03-19T09:49:57.862Z,0.88
2023-03-19T09:50:47.882Z,0.96
2023-03-19T09:51:37.925Z,0.98
2023-03-19T09:52:27.965Z,0.99
2023-03-19T09:53:17.997Z,1.01
2023-03-19T09:54:08.036Z,1.00
2023-03-19T09:54:58.141Z,1.00
2023-03-19T09:55:48.156Z,0.99
2023-03-19T09:56:38.193Z,0.97
2023-03-19T09:57:28.317Z,1.01
2023-03-19T09:58:18.312Z,1.03
2023-03-19T09:59:08.426Z,1.06
2023-03-19T09:59:58.496Z,1.06
2023-03-19T10:00:48.539Z,1.05
2023-03-19T10:01:38.655Z,0.98
2023-03-19T10:02:28.641Z,0.92
2023-03-19T10:03:18.664Z,0.90
2023-03-19T10:04:09.053Z,0.93
2023-03-19T10:04:59.099Z,0.92
2023-03-19T10:05:49.214Z,0.95
2023-03-19T10:06:39.173Z,0.96
2023-03-19T10:07:29.268Z,0.91
2023-03-19T10:08:19.287Z,0.91
2023-03-19T10:09:09.371Z,0.90
2023-03-19T10:09:59.433Z,0.93
2023-03-19T10:10:49.461Z,0.92
2023-03-19T10:11:39.486Z,0.92
2023-03-19T10:12:29.528Z,0.96
2023-03-19T10:13:19.579Z,0.92
2023-03-19T10:14:09.629Z,0.89
2023-03-19T10:14:59.689Z,0.93
2023-03-19T10:15:49.768Z,0.96
2023-03-19T10:16:40.002Z,0.99
2023-03-19T10:17:29.878Z,0.99
2023-03-19T10:18:19.918Z,1.00
2023-03-19T10:19:09.945Z,0.98
2023-03-19T10:20:00.259Z,1.00
2023-03-19T10:20:50.309Z,0.98
2023-03-19T10:21:40.354Z,0.95
2023-03-19T10:22:30.390Z,0.94
2023-03-19T10:23:20.419Z,0.90
2023-03-19T10:24:10.498Z,0.93
2023-03-19T10:25:00.554Z,0.93
2023-03-19T10:25:50.611Z,0.94
2023-03-19T10:26:40.649Z,0.92
2023-03-19T10:27:30.723Z,0.92
2023-03-19T10:28:20.745Z,0.92
2023-03-19T10:29:11.102Z,0.95
2023-03-19T10:30:01.093Z,0.97
2023-03-19T10:30:51.166Z,0.94
2023-03-19T10:31:41.245Z,0.93
2023-03-19T10:32:31.315Z,0.98
2023-03-19T10:33:21.311Z,1.00
2023-03-19T10:34:11.360Z,1.02
2023-03-19T10:35:01.404Z,1.01
2023-03-19T10:35:51.507Z,1.03
2023-03-19T10:36:41.527Z,1.05
2023-03-19T10:37:31.622Z,1.02
2023-03-19T10:38:21.648Z,1.05
2023-03-19T10:39:11.704Z,1.08
2023-03-19T10:40:01.738Z,1.06
2023-03-19T10:40:51.818Z,1.04
2023-03-19T10:41:41.841Z,1.02
2023-03-19T10:42:33.217Z,1.01
2023-03-19T10:43:21.921Z,1.01
2023-03-19T10:44:12.001Z,0.97
2023-03-19T10:45:02.050Z,0.95
2023-03-19T10:45:52.150Z,0.98
2023-03-19T10:46:42.164Z,0.99
2023-03-19T10:47:32.237Z,0.99
2023-03-19T10:48:22.260Z,0.99
2023-03-19T10:49:12.364Z,0.98
2023-03-19T10:50:02.385Z,1.01
2023-03-19T10:50:52.431Z,1.02
2023-03-19T10:51:42.471Z,1.01
2023-03-19T10:52:32.584Z,1.01
2023-03-19T10:53:22.584Z,1.04
2023-03-19T10:54:12.667Z,1.05
2023-03-19T10:55:02.699Z,1.04
2023-03-19T10:55:52.781Z,1.06
2023-03-19T10:56:42.813Z,1.05
2023-03-19T10:57:32.926Z,0.98
2023-03-19T10:58:23.195Z,1.00
2023-03-19T10:59:13.242Z,1.00
2023-03-19T11:00:03.267Z,0.95
2023-03-19T11:00:53.419Z,1.02
2023-03-19T11:01:43.396Z,0.99
2023-03-19T11:02:33.566Z,0.99
2023-03-19T11:03:23.509Z,1.04
2023-03-19T11:04:13.621Z,1.05
2023-03-19T11:05:03.627Z,1.05
2023-03-19T11:05:53.715Z,1.07
2023-03-19T11:06:43.738Z,1.06